sensor_id;sensor_type;location;lat;lon;timestamp;temperature;humidity
50955;DHT22;36966;48.064;-0.792;2022-11-20T00:01:07;17.70;47.80
50955;DHT22;36966;48.064;-0.792;2022-11-20T00:03:26;17.70;47.80
50955;DHT22;36966;48.064;-0.792;2022-11-20T00:05:46;17.70;47.80
50955;DHT22;36966;48.064;-0.792;2022-11-20T00:08:05;17.70;47.90
50955;DHT22;36966;48.064;-0.792;2022-11-20T00:10:25;17.70;47.80
50955;DHT22;36966;48.064;-0.792;2022-11-20T00:12:44;17.70;47.90
50955;DHT22;36966;48.064;-0.792;2022-11-20T00:15:04;17.70;47.90
50955;DHT22;36966;48.064;-0.792;2022-11-20T00:17:23;17.70;48.00
50955;DHT22;36966;48.064;-0.792;2022-11-20T00:19:42;17.70;47.90
50955;DHT22;36966;48.064;-0.792;2022-11-20T00:22:01;17.70;47.90
50955;DHT22;36966;48.064;-0.792;2022-11-20T00:24:21;17.70;47.90
50955;DHT22;36966;48.064;-0.792;2022-11-20T00:26:40;17.70;47.90
50955;DHT22;36966;48.064;-0.792;2022-11-20T00:29:00;17.70;47.90
50955;DHT22;36966;48.064;-0.792;2022-11-20T00:31:20;17.70;47.90
50955;DHT22;36966;48.064;-0.792;2022-11-20T00:33:40;17.70;47.90
50955;DHT22;36966;48.064;-0.792;2022-11-20T00:36:04;17.60;47.80
50955;DHT22;36966;48.064;-0.792;2022-11-20T00:38:24;17.60;47.80
50955;DHT22;36966;48.064;-0.792;2022-11-20T00:40:43;17.70;47.70
50955;DHT22;36966;48.064;-0.792;2022-11-20T00:43:02;17.70;47.70
50955;DHT22;36966;48.064;-0.792;2022-11-20T00:45:21;17.60;47.70
50955;DHT22;36966;48.064;-0.792;2022-11-20T00:47:40;17.70;47.70
50955;DHT22;36966;48.064;-0.792;2022-11-20T00:49:59;17.70;47.70
50955;DHT22;36966;48.064;-0.792;2022-11-20T00:52:18;17.60;47.70
50955;DHT22;36966;48.064;-0.792;2022-11-20T00:54:37;17.60;47.80
50955;DHT22;36966;48.064;-0.792;2022-11-20T00:56:56;17.60;47.70
50955;DHT22;36966;48.064;-0.792;2022-11-20T00:59:16;17.60;47.70
50955;DHT22;36966;48.064;-0.792;2022-11-20T01:01:36;17.60;47.70
50955;DHT22;36966;48.064;-0.792;2022-11-20T01:03:58;17.60;47.70
50955;DHT22;36966;48.064;-0.792;2022-11-20T01:06:20;17.60;47.60
50955;DHT22;36966;48.064;-0.792;2022-11-20T01:08:39;17.60;47.60
50955;DHT22;36966;48.064;-0.792;2022-11-20T01:11:00;17.60;47.60
50955;DHT22;36966;48.064;-0.792;2022-11-20T01:13:20;17.60;47.60
50955;DHT22;36966;48.064;-0.792;2022-11-20T01:16:06;17.50;47.50
50955;DHT22;36966;48.064;-0.792;2022-11-20T01:18:25;17.60;47.50
50955;DHT22;36966;48.064;-0.792;2022-11-20T01:20:45;17.50;47.50
50955;DHT22;36966;48.064;-0.792;2022-11-20T01:23:04;17.50;47.50
50955;DHT22;36966;48.064;-0.792;2022-11-20T01:25:23;17.60;47.50
50955;DHT22;36966;48.064;-0.792;2022-11-20T01:27:42;17.50;47.50
50955;DHT22;36966;48.064;-0.792;2022-11-20T01:30:01;17.60;47.50
50955;DHT22;36966;48.064;-0.792;2022-11-20T01:32:20;17.50;47.50
50955;DHT22;36966;48.064;-0.792;2022-11-20T01:34:39;17.50;47.50
50955;DHT22;36966;48.064;-0.792;2022-11-20T01:36:58;17.50;47.50
50955;DHT22;36966;48.064;-0.792;2022-11-20T01:39:23;17.50;47.40
50955;DHT22;36966;48.064;-0.792;2022-11-20T01:41:43;17.50;47.40
50955;DHT22;36966;48.064;-0.792;2022-11-20T01:44:42;17.50;47.40
50955;DHT22;36966;48.064;-0.792;2022-11-20T01:47:05;17.50;47.40
50955;DHT22;36966;48.064;-0.792;2022-11-20T01:49:27;17.50;47.40
50955;DHT22;36966;48.064;-0.792;2022-11-20T01:51:55;17.50;47.40
50955;DHT22;36966;48.064;-0.792;2022-11-20T01:54:21;17.50;47.40
50955;DHT22;36966;48.064;-0.792;2022-11-20T01:56:44;17.50;47.40
50955;DHT22;36966;48.064;-0.792;2022-11-20T01:59:07;17.40;47.40
50955;DHT22;36966;48.064;-0.792;2022-11-20T02:01:28;17.50;47.40
50955;DHT22;36966;48.064;-0.792;2022-11-20T02:03:48;17.50;47.40
50955;DHT22;36966;48.064;-0.792;2022-11-20T02:06:23;17.50;47.40
50955;DHT22;36966;48.064;-0.792;2022-11-20T02:08:43;17.40;47.40
50955;DHT22;36966;48.064;-0.792;2022-11-20T02:11:02;17.40;47.30
50955;DHT22;36966;48.064;-0.792;2022-11-20T02:13:22;17.50;47.30
50955;DHT22;36966;48.064;-0.792;2022-11-20T02:16:01;17.40;47.30
50955;DHT22;36966;48.064;-0.792;2022-11-20T02:18:21;17.40;47.30
50955;DHT22;36966;48.064;-0.792;2022-11-20T02:20:47;17.40;47.30
50955;DHT22;36966;48.064;-0.792;2022-11-20T02:25:39;17.40;47.30
50955;DHT22;36966;48.064;-0.792;2022-11-20T02:28:00;17.40;47.30
50955;DHT22;36966;48.064;-0.792;2022-11-20T02:30:20;17.40;47.30
50955;DHT22;36966;48.064;-0.792;2022-11-20T02:32:39;17.40;47.30
50955;DHT22;36966;48.064;-0.792;2022-11-20T02:35:35;17.40;47.30
50955;DHT22;36966;48.064;-0.792;2022-11-20T02:37:52;17.50;47.30
50955;DHT22;36966;48.064;-0.792;2022-11-20T02:40:12;17.40;47.40
50955;DHT22;36966;48.064;-0.792;2022-11-20T02:42:31;17.40;47.40
50955;DHT22;36966;48.064;-0.792;2022-11-20T02:44:50;17.40;47.40
50955;DHT22;36966;48.064;-0.792;2022-11-20T02:47:09;17.40;47.40
50955;DHT22;36966;48.064;-0.792;2022-11-20T02:49:29;17.40;47.40
50955;DHT22;36966;48.064;-0.792;2022-11-20T02:51:48;17.40;47.50
50955;DHT22;36966;48.064;-0.792;2022-11-20T02:54:07;17.40;47.50
50955;DHT22;36966;48.064;-0.792;2022-11-20T02:56:26;17.40;47.60
50955;DHT22;36966;48.064;-0.792;2022-11-20T02:58:46;17.40;47.60
50955;DHT22;36966;48.064;-0.792;2022-11-20T03:01:05;17.40;47.60
50955;DHT22;36966;48.064;-0.792;2022-11-20T03:03:24;17.40;47.60
50955;DHT22;36966;48.064;-0.792;2022-11-20T03:05:43;17.40;47.60
50955;DHT22;36966;48.064;-0.792;2022-11-20T03:08:02;17.40;47.60
50955;DHT22;36966;48.064;-0.792;2022-11-20T03:10:21;17.40;47.60
50955;DHT22;36966;48.064;-0.792;2022-11-20T03:12:40;17.40;47.70
50955;DHT22;36966;48.064;-0.792;2022-11-20T03:15:00;17.40;47.60
50955;DHT22;36966;48.064;-0.792;2022-11-20T03:17:19;17.30;47.70
50955;DHT22;36966;48.064;-0.792;2022-11-20T03:19:38;17.40;47.70
50955;DHT22;36966;48.064;-0.792;2022-11-20T03:21:57;17.40;47.70
50955;DHT22;36966;48.064;-0.792;2022-11-20T03:24:17;17.40;47.70
50955;DHT22;36966;48.064;-0.792;2022-11-20T03:26:36;17.40;47.70
50955;DHT22;36966;48.064;-0.792;2022-11-20T03:28:57;17.40;47.70
50955;DHT22;36966;48.064;-0.792;2022-11-20T03:31:19;17.40;47.70
50955;DHT22;36966;48.064;-0.792;2022-11-20T03:33:39;17.40;47.80
50955;DHT22;36966;48.064;-0.792;2022-11-20T03:36:04;17.30;47.80
50955;DHT22;36966;48.064;-0.792;2022-11-20T03:38:23;17.30;47.70
50955;DHT22;36966;48.064;-0.792;2022-11-20T03:40:42;17.30;47.80
50955;DHT22;36966;48.064;-0.792;2022-11-20T03:43:02;17.30;47.80
50955;DHT22;36966;48.064;-0.792;2022-11-20T03:45:21;17.30;47.90
50955;DHT22;36966;48.064;-0.792;2022-11-20T03:47:40;17.40;47.90
50955;DHT22;36966;48.064;-0.792;2022-11-20T03:49:59;17.30;47.90
50955;DHT22;36966;48.064;-0.792;2022-11-20T03:52:19;17.30;47.90
50955;DHT22;36966;48.064;-0.792;2022-11-20T03:54:38;17.30;47.90
50955;DHT22;36966;48.064;-0.792;2022-11-20T03:56:57;17.30;47.90
50955;DHT22;36966;48.064;-0.792;2022-11-20T03:59:16;17.30;48.00
50955;DHT22;36966;48.064;-0.792;2022-11-20T04:01:36;17.30;48.00
50955;DHT22;36966;48.064;-0.792;2022-11-20T04:03:58;17.30;48.00
50955;DHT22;36966;48.064;-0.792;2022-11-20T04:06:20;17.30;48.00
50955;DHT22;36966;48.064;-0.792;2022-11-20T04:08:40;17.30;48.00
50955;DHT22;36966;48.064;-0.792;2022-11-20T04:11:21;17.30;48.00
50955;DHT22;36966;48.064;-0.792;2022-11-20T04:13:41;17.30;48.00
50955;DHT22;36966;48.064;-0.792;2022-11-20T04:16:01;17.30;48.10
50955;DHT22;36966;48.064;-0.792;2022-11-20T04:18:20;17.30;48.10
50955;DHT22;36966;48.064;-0.792;2022-11-20T04:20:40;17.30;48.10
50955;DHT22;36966;48.064;-0.792;2022-11-20T04:22:59;17.30;48.10
50955;DHT22;36966;48.064;-0.792;2022-11-20T04:25:18;17.30;48.20
50955;DHT22;36966;48.064;-0.792;2022-11-20T04:27:37;17.30;48.20
50955;DHT22;36966;48.064;-0.792;2022-11-20T04:29:56;17.30;48.20
50955;DHT22;36966;48.064;-0.792;2022-11-20T04:32:16;17.30;48.30
50955;DHT22;36966;48.064;-0.792;2022-11-20T04:34:35;17.30;48.30
50955;DHT22;36966;48.064;-0.792;2022-11-20T04:36:54;17.30;48.30
50955;DHT22;36966;48.064;-0.792;2022-11-20T04:39:14;17.30;48.30
50955;DHT22;36966;48.064;-0.792;2022-11-20T04:41:36;17.30;48.40
50955;DHT22;36966;48.064;-0.792;2022-11-20T04:43:58;17.30;48.40
50955;DHT22;36966;48.064;-0.792;2022-11-20T04:46:23;17.30;48.40
50955;DHT22;36966;48.064;-0.792;2022-11-20T04:48:42;17.30;48.50
50955;DHT22;36966;48.064;-0.792;2022-11-20T04:51:05;17.30;48.50
50955;DHT22;36966;48.064;-0.792;2022-11-20T04:53:25;17.30;48.50
50955;DHT22;36966;48.064;-0.792;2022-11-20T04:55:44;17.30;48.40
50955;DHT22;36966;48.064;-0.792;2022-11-20T04:58:03;17.20;48.50
50955;DHT22;36966;48.064;-0.792;2022-11-20T05:00:23;17.30;48.50
50955;DHT22;36966;48.064;-0.792;2022-11-20T05:02:42;17.20;48.50
50955;DHT22;36966;48.064;-0.792;2022-11-20T05:05:01;17.30;48.50
50955;DHT22;36966;48.064;-0.792;2022-11-20T05:07:20;17.30;48.50
50955;DHT22;36966;48.064;-0.792;2022-11-20T05:09:39;17.30;48.50
50955;DHT22;36966;48.064;-0.792;2022-11-20T05:11:58;17.30;48.50
50955;DHT22;36966;48.064;-0.792;2022-11-20T05:14:17;17.30;48.50
50955;DHT22;36966;48.064;-0.792;2022-11-20T05:16:36;17.30;48.50
50955;DHT22;36966;48.064;-0.792;2022-11-20T05:18:56;17.30;48.40
50955;DHT22;36966;48.064;-0.792;2022-11-20T05:21:16;17.30;48.40
50955;DHT22;36966;48.064;-0.792;2022-11-20T05:23:36;17.30;48.40
50955;DHT22;36966;48.064;-0.792;2022-11-20T05:25:56;17.30;48.40
50955;DHT22;36966;48.064;-0.792;2022-11-20T05:28:15;17.30;48.40
50955;DHT22;36966;48.064;-0.792;2022-11-20T05:30:34;17.30;48.30
50955;DHT22;36966;48.064;-0.792;2022-11-20T05:32:53;17.40;48.30
50955;DHT22;36966;48.064;-0.792;2022-11-20T05:35:13;17.40;48.20
50955;DHT22;36966;48.064;-0.792;2022-11-20T05:37:32;17.40;48.20
50955;DHT22;36966;48.064;-0.792;2022-11-20T05:39:51;17.40;48.20
50955;DHT22;36966;48.064;-0.792;2022-11-20T05:42:10;17.40;48.20
50955;DHT22;36966;48.064;-0.792;2022-11-20T05:44:48;17.40;48.10
50955;DHT22;36966;48.064;-0.792;2022-11-20T05:47:07;17.40;48.10
50955;DHT22;36966;48.064;-0.792;2022-11-20T05:49:26;17.40;47.90
50955;DHT22;36966;48.064;-0.792;2022-11-20T05:51:45;17.40;48.10
50955;DHT22;36966;48.064;-0.792;2022-11-20T05:54:04;17.40;48.10
50955;DHT22;36966;48.064;-0.792;2022-11-20T05:56:24;17.40;48.20
50955;DHT22;36966;48.064;-0.792;2022-11-20T05:58:43;17.50;48.20
50955;DHT22;36966;48.064;-0.792;2022-11-20T06:01:18;17.50;48.30
50955;DHT22;36966;48.064;-0.792;2022-11-20T06:03:38;17.50;48.20
50955;DHT22;36966;48.064;-0.792;2022-11-20T06:05:59;17.50;48.40
50955;DHT22;36966;48.064;-0.792;2022-11-20T06:08:18;17.50;48.30
50955;DHT22;36966;48.064;-0.792;2022-11-20T06:10:38;17.50;48.40
50955;DHT22;36966;48.064;-0.792;2022-11-20T06:12:58;17.50;48.40
50955;DHT22;36966;48.064;-0.792;2022-11-20T06:15:17;17.60;48.50
50955;DHT22;36966;48.064;-0.792;2022-11-20T06:17:36;17.60;48.40
50955;DHT22;36966;48.064;-0.792;2022-11-20T06:19:55;17.60;48.50
50955;DHT22;36966;48.064;-0.792;2022-11-20T06:22:14;17.60;48.50
50955;DHT22;36966;48.064;-0.792;2022-11-20T06:24:34;17.60;48.50
50955;DHT22;36966;48.064;-0.792;2022-11-20T06:26:53;17.60;48.50
50955;DHT22;36966;48.064;-0.792;2022-11-20T06:29:12;17.60;48.60
50955;DHT22;36966;48.064;-0.792;2022-11-20T06:31:31;17.60;48.60
50955;DHT22;36966;48.064;-0.792;2022-11-20T06:33:53;17.60;48.70
50955;DHT22;36966;48.064;-0.792;2022-11-20T06:36:15;17.70;48.70
50955;DHT22;36966;48.064;-0.792;2022-11-20T06:38:34;17.70;48.70
50955;DHT22;36966;48.064;-0.792;2022-11-20T06:40:54;17.70;48.70
50955;DHT22;36966;48.064;-0.792;2022-11-20T06:43:13;17.60;48.70
50955;DHT22;36966;48.064;-0.792;2022-11-20T06:45:33;17.70;48.70
50955;DHT22;36966;48.064;-0.792;2022-11-20T06:47:52;17.70;48.80
50955;DHT22;36966;48.064;-0.792;2022-11-20T06:50:11;17.70;48.80
50955;DHT22;36966;48.064;-0.792;2022-11-20T06:52:30;17.70;48.80
50955;DHT22;36966;48.064;-0.792;2022-11-20T06:54:49;17.70;48.90
50955;DHT22;36966;48.064;-0.792;2022-11-20T06:57:08;17.70;48.80
50955;DHT22;36966;48.064;-0.792;2022-11-20T06:59:27;17.70;48.90
50955;DHT22;36966;48.064;-0.792;2022-11-20T07:01:46;17.70;48.90
50955;DHT22;36966;48.064;-0.792;2022-11-20T07:04:06;17.70;48.90
50955;DHT22;36966;48.064;-0.792;2022-11-20T07:06:25;17.70;49.00
50955;DHT22;36966;48.064;-0.792;2022-11-20T07:08:44;17.70;49.00
50955;DHT22;36966;48.064;-0.792;2022-11-20T07:11:05;17.70;49.00
50955;DHT22;36966;48.064;-0.792;2022-11-20T07:13:25;17.70;49.00
50955;DHT22;36966;48.064;-0.792;2022-11-20T07:15:44;17.70;49.00
50955;DHT22;36966;48.064;-0.792;2022-11-20T07:18:03;17.70;49.20
50955;DHT22;36966;48.064;-0.792;2022-11-20T07:20:22;17.70;49.20
50955;DHT22;36966;48.064;-0.792;2022-11-20T07:22:42;17.70;49.20
50955;DHT22;36966;48.064;-0.792;2022-11-20T07:25:01;17.70;49.30
50955;DHT22;36966;48.064;-0.792;2022-11-20T07:27:21;17.70;49.30
50955;DHT22;36966;48.064;-0.792;2022-11-20T07:29:40;17.70;49.50
50955;DHT22;36966;48.064;-0.792;2022-11-20T07:31:59;17.70;49.50
50955;DHT22;36966;48.064;-0.792;2022-11-20T07:34:18;17.70;49.50
50955;DHT22;36966;48.064;-0.792;2022-11-20T07:36:39;17.70;49.60
50955;DHT22;36966;48.064;-0.792;2022-11-20T07:38:58;17.70;49.70
50955;DHT22;36966;48.064;-0.792;2022-11-20T07:41:17;17.70;49.80
50955;DHT22;36966;48.064;-0.792;2022-11-20T07:43:36;17.70;49.90
50955;DHT22;36966;48.064;-0.792;2022-11-20T07:45:57;17.70;49.90
50955;DHT22;36966;48.064;-0.792;2022-11-20T07:48:16;17.70;49.90
50955;DHT22;36966;48.064;-0.792;2022-11-20T07:50:36;17.70;49.90
50955;DHT22;36966;48.064;-0.792;2022-11-20T07:53:05;17.70;49.90
50955;DHT22;36966;48.064;-0.792;2022-11-20T07:55:24;17.70;50.00
50955;DHT22;36966;48.064;-0.792;2022-11-20T07:57:43;17.70;50.10
50955;DHT22;36966;48.064;-0.792;2022-11-20T08:00:04;17.70;50.20
50955;DHT22;36966;48.064;-0.792;2022-11-20T08:02:23;17.70;50.30
50955;DHT22;36966;48.064;-0.792;2022-11-20T08:04:42;17.70;50.40
50955;DHT22;36966;48.064;-0.792;2022-11-20T08:07:01;17.70;50.50
50955;DHT22;36966;48.064;-0.792;2022-11-20T08:09:21;17.70;50.50
50955;DHT22;36966;48.064;-0.792;2022-11-20T08:11:40;17.70;50.50
50955;DHT22;36966;48.064;-0.792;2022-11-20T08:14:18;17.70;50.40
50955;DHT22;36966;48.064;-0.792;2022-11-20T08:16:38;17.70;50.50
50955;DHT22;36966;48.064;-0.792;2022-11-20T08:18:58;17.70;50.50
50955;DHT22;36966;48.064;-0.792;2022-11-20T08:21:17;17.70;50.50
50955;DHT22;36966;48.064;-0.792;2022-11-20T08:23:36;17.70;50.60
50955;DHT22;36966;48.064;-0.792;2022-11-20T08:25:55;17.70;50.60
50955;DHT22;36966;48.064;-0.792;2022-11-20T08:28:14;17.70;50.60
50955;DHT22;36966;48.064;-0.792;2022-11-20T08:30:34;17.70;50.60
50955;DHT22;36966;48.064;-0.792;2022-11-20T08:32:54;17.70;50.70
50955;DHT22;36966;48.064;-0.792;2022-11-20T08:35:13;17.70;50.70
50955;DHT22;36966;48.064;-0.792;2022-11-20T08:37:32;17.70;50.80
50955;DHT22;36966;48.064;-0.792;2022-11-20T08:39:51;17.70;50.80
50955;DHT22;36966;48.064;-0.792;2022-11-20T08:42:12;17.70;50.90
50955;DHT22;36966;48.064;-0.792;2022-11-20T08:44:31;17.70;50.90
50955;DHT22;36966;48.064;-0.792;2022-11-20T08:46:51;17.70;51.00
50955;DHT22;36966;48.064;-0.792;2022-11-20T08:49:12;17.70;50.90
50955;DHT22;36966;48.064;-0.792;2022-11-20T08:51:32;17.70;51.10
50955;DHT22;36966;48.064;-0.792;2022-11-20T08:53:51;17.70;51.00
50955;DHT22;36966;48.064;-0.792;2022-11-20T08:56:11;17.70;51.10
50955;DHT22;36966;48.064;-0.792;2022-11-20T08:58:30;17.70;51.10
50955;DHT22;36966;48.064;-0.792;2022-11-20T09:00:50;17.70;51.00
50955;DHT22;36966;48.064;-0.792;2022-11-20T09:03:09;17.70;51.10
50955;DHT22;36966;48.064;-0.792;2022-11-20T09:05:28;17.80;51.20
50955;DHT22;36966;48.064;-0.792;2022-11-20T09:07:48;17.70;51.20
50955;DHT22;36966;48.064;-0.792;2022-11-20T09:10:07;17.70;51.10
50955;DHT22;36966;48.064;-0.792;2022-11-20T09:12:27;17.70;51.20
50955;DHT22;36966;48.064;-0.792;2022-11-20T09:14:46;17.70;51.20
50955;DHT22;36966;48.064;-0.792;2022-11-20T09:17:05;17.70;51.30
50955;DHT22;36966;48.064;-0.792;2022-11-20T09:19:26;17.80;51.30
50955;DHT22;36966;48.064;-0.792;2022-11-20T09:21:46;17.70;51.40
50955;DHT22;36966;48.064;-0.792;2022-11-20T09:24:05;17.80;51.30
50955;DHT22;36966;48.064;-0.792;2022-11-20T09:26:24;17.80;51.50
50955;DHT22;36966;48.064;-0.792;2022-11-20T09:28:43;17.80;51.40
50955;DHT22;36966;48.064;-0.792;2022-11-20T09:31:20;17.80;51.40
50955;DHT22;36966;48.064;-0.792;2022-11-20T09:33:40;17.80;51.40
50955;DHT22;36966;48.064;-0.792;2022-11-20T09:35:59;17.80;51.50
50955;DHT22;36966;48.064;-0.792;2022-11-20T09:38:18;17.80;51.50
50955;DHT22;36966;48.064;-0.792;2022-11-20T09:40:51;17.80;51.50
50955;DHT22;36966;48.064;-0.792;2022-11-20T09:43:24;17.90;51.60
50955;DHT22;36966;48.064;-0.792;2022-11-20T09:56:17;17.90;51.70
50955;DHT22;36966;48.064;-0.792;2022-11-20T09:58:52;17.90;51.70
50955;DHT22;36966;48.064;-0.792;2022-11-20T10:06:13;18.00;51.90
50955;DHT22;36966;48.064;-0.792;2022-11-20T10:09:30;18.00;52.00
50955;DHT22;36966;48.064;-0.792;2022-11-20T10:11:51;18.10;52.20
50955;DHT22;36966;48.064;-0.792;2022-11-20T10:19:40;18.20;53.00
50955;DHT22;36966;48.064;-0.792;2022-11-20T10:22:50;18.20;52.90
50955;DHT22;36966;48.064;-0.792;2022-11-20T10:25:19;18.20;53.20
50955;DHT22;36966;48.064;-0.792;2022-11-20T10:28:05;18.30;53.10
50955;DHT22;36966;48.064;-0.792;2022-11-20T10:30:27;18.30;53.10
50955;DHT22;36966;48.064;-0.792;2022-11-20T10:32:53;18.40;53.20
50955;DHT22;36966;48.064;-0.792;2022-11-20T10:37:34;18.40;53.20
50955;DHT22;36966;48.064;-0.792;2022-11-20T10:42:44;18.50;53.20
50955;DHT22;36966;48.064;-0.792;2022-11-20T10:47:48;18.60;53.20
50955;DHT22;36966;48.064;-0.792;2022-11-20T10:50:11;18.60;53.10
50955;DHT22;36966;48.064;-0.792;2022-11-20T10:52:50;18.60;53.10
50955;DHT22;36966;48.064;-0.792;2022-11-20T11:00:31;18.70;53.30
50955;DHT22;36966;48.064;-0.792;2022-11-20T11:02:52;18.70;53.00
50955;DHT22;36966;48.064;-0.792;2022-11-20T11:05:46;18.70;53.10
50955;DHT22;36966;48.064;-0.792;2022-11-20T11:08:18;18.70;53.00
50955;DHT22;36966;48.064;-0.792;2022-11-20T11:13:23;18.80;53.00
50955;DHT22;36966;48.064;-0.792;2022-11-20T11:15:42;18.80;52.90
50955;DHT22;36966;48.064;-0.792;2022-11-20T11:18:02;18.90;53.00
50955;DHT22;36966;48.064;-0.792;2022-11-20T11:20:23;18.90;52.90
50955;DHT22;36966;48.064;-0.792;2022-11-20T11:25:04;18.90;52.90
50955;DHT22;36966;48.064;-0.792;2022-11-20T11:27:23;18.90;53.00
50955;DHT22;36966;48.064;-0.792;2022-11-20T11:29:43;19.00;52.90
50955;DHT22;36966;48.064;-0.792;2022-11-20T11:32:08;19.00;52.90
50955;DHT22;36966;48.064;-0.792;2022-11-20T11:34:29;19.00;52.90
50955;DHT22;36966;48.064;-0.792;2022-11-20T11:36:57;19.00;52.90
50955;DHT22;36966;48.064;-0.792;2022-11-20T11:39:20;19.00;52.90
50955;DHT22;36966;48.064;-0.792;2022-11-20T11:41:40;19.00;52.80
50955;DHT22;36966;48.064;-0.792;2022-11-20T11:44:33;19.00;52.90
50955;DHT22;36966;48.064;-0.792;2022-11-20T11:47:25;19.00;52.90
50955;DHT22;36966;48.064;-0.792;2022-11-20T11:49:45;19.00;53.00
50955;DHT22;36966;48.064;-0.792;2022-11-20T11:56:51;18.90;53.10
50955;DHT22;36966;48.064;-0.792;2022-11-20T11:59:15;18.90;53.20
50955;DHT22;36966;48.064;-0.792;2022-11-20T12:01:52;18.90;53.20
50955;DHT22;36966;48.064;-0.792;2022-11-20T12:04:37;18.90;53.30
50955;DHT22;36966;48.064;-0.792;2022-11-20T12:07:02;18.90;53.20
50955;DHT22;36966;48.064;-0.792;2022-11-20T12:09:26;18.90;53.20
50955;DHT22;36966;48.064;-0.792;2022-11-20T12:12:08;18.90;53.20
50955;DHT22;36966;48.064;-0.792;2022-11-20T12:14:48;19.00;53.10
50955;DHT22;36966;48.064;-0.792;2022-11-20T12:17:12;19.00;53.10
50955;DHT22;36966;48.064;-0.792;2022-11-20T12:19:34;19.00;53.00
50955;DHT22;36966;48.064;-0.792;2022-11-20T12:24:44;19.00;53.00
50955;DHT22;36966;48.064;-0.792;2022-11-20T12:34:49;19.00;52.90
50955;DHT22;36966;48.064;-0.792;2022-11-20T12:39:41;18.90;52.90
50955;DHT22;36966;48.064;-0.792;2022-11-20T12:48:54;18.80;53.00
50955;DHT22;36966;48.064;-0.792;2022-11-20T12:54:23;18.80;53.00
50955;DHT22;36966;48.064;-0.792;2022-11-20T13:02:25;18.70;53.10
50955;DHT22;36966;48.064;-0.792;2022-11-20T13:07:22;18.80;53.00
50955;DHT22;36966;48.064;-0.792;2022-11-20T13:09:48;18.80;53.00
50955;DHT22;36966;48.064;-0.792;2022-11-20T13:14:58;18.80;53.00
50955;DHT22;36966;48.064;-0.792;2022-11-20T13:19:53;18.80;53.00
50955;DHT22;36966;48.064;-0.792;2022-11-20T13:22:27;18.80;53.00
50955;DHT22;36966;48.064;-0.792;2022-11-20T13:24:51;18.70;53.00
50955;DHT22;36966;48.064;-0.792;2022-11-20T13:29:35;18.80;53.00
50955;DHT22;36966;48.064;-0.792;2022-11-20T13:34:24;18.70;53.00
50955;DHT22;36966;48.064;-0.792;2022-11-20T13:36:50;18.70;52.90
50955;DHT22;36966;48.064;-0.792;2022-11-20T13:39:10;18.70;52.90
50955;DHT22;36966;48.064;-0.792;2022-11-20T13:41:32;18.70;52.90
50955;DHT22;36966;48.064;-0.792;2022-11-20T13:43:54;18.70;52.90
50955;DHT22;36966;48.064;-0.792;2022-11-20T13:46:17;18.70;52.90
50955;DHT22;36966;48.064;-0.792;2022-11-20T13:48:45;18.70;52.90
50955;DHT22;36966;48.064;-0.792;2022-11-20T13:56:30;18.70;53.00
50955;DHT22;36966;48.064;-0.792;2022-11-20T14:01:50;18.70;53.00
50955;DHT22;36966;48.064;-0.792;2022-11-20T14:04:09;18.70;53.00
50955;DHT22;36966;48.064;-0.792;2022-11-20T14:06:40;18.70;53.00
50955;DHT22;36966;48.064;-0.792;2022-11-20T14:09:00;18.70;53.00
50955;DHT22;36966;48.064;-0.792;2022-11-20T14:11:24;18.70;53.00
50955;DHT22;36966;48.064;-0.792;2022-11-20T14:16:38;18.70;53.00
50955;DHT22;36966;48.064;-0.792;2022-11-20T14:21:39;18.70;53.00
50955;DHT22;36966;48.064;-0.792;2022-11-20T14:24:05;18.70;53.00
50955;DHT22;36966;48.064;-0.792;2022-11-20T14:26:25;18.70;53.00
50955;DHT22;36966;48.064;-0.792;2022-11-20T14:28:49;18.70;53.00
50955;DHT22;36966;48.064;-0.792;2022-11-20T14:31:21;18.70;53.00
50955;DHT22;36966;48.064;-0.792;2022-11-20T14:33:42;18.70;53.00
50955;DHT22;36966;48.064;-0.792;2022-11-20T14:36:01;18.70;53.00
50955;DHT22;36966;48.064;-0.792;2022-11-20T14:38:25;18.70;53.00
50955;DHT22;36966;48.064;-0.792;2022-11-20T14:40:45;18.70;53.00
50955;DHT22;36966;48.064;-0.792;2022-11-20T14:43:25;18.70;53.00
50955;DHT22;36966;48.064;-0.792;2022-11-20T14:45:52;18.70;53.00
50955;DHT22;36966;48.064;-0.792;2022-11-20T14:48:15;18.70;53.00
50955;DHT22;36966;48.064;-0.792;2022-11-20T14:50:35;18.70;53.10
50955;DHT22;36966;48.064;-0.792;2022-11-20T14:52:57;18.70;53.30
50955;DHT22;36966;48.064;-0.792;2022-11-20T14:55:34;18.60;53.30
50955;DHT22;36966;48.064;-0.792;2022-11-20T14:57:59;18.60;53.20
50955;DHT22;36966;48.064;-0.792;2022-11-20T15:00:20;18.60;53.10
50955;DHT22;36966;48.064;-0.792;2022-11-20T15:02:42;18.60;53.10
50955;DHT22;36966;48.064;-0.792;2022-11-20T15:05:02;18.60;53.10
50955;DHT22;36966;48.064;-0.792;2022-11-20T15:07:34;18.60;53.10
50955;DHT22;36966;48.064;-0.792;2022-11-20T15:12:51;18.60;53.10
50955;DHT22;36966;48.064;-0.792;2022-11-20T15:15:12;18.60;53.10
50955;DHT22;36966;48.064;-0.792;2022-11-20T15:17:36;18.60;53.10
50955;DHT22;36966;48.064;-0.792;2022-11-20T15:19:57;18.60;53.10
50955;DHT22;36966;48.064;-0.792;2022-11-20T15:22:16;18.60;53.20
50955;DHT22;36966;48.064;-0.792;2022-11-20T15:24:35;18.60;53.10
50955;DHT22;36966;48.064;-0.792;2022-11-20T15:26:55;18.60;53.20
50955;DHT22;36966;48.064;-0.792;2022-11-20T15:29:15;18.60;53.20
50955;DHT22;36966;48.064;-0.792;2022-11-20T15:31:40;18.60;53.20
50955;DHT22;36966;48.064;-0.792;2022-11-20T15:34:00;18.50;53.10
50955;DHT22;36966;48.064;-0.792;2022-11-20T15:36:19;18.60;53.10
50955;DHT22;36966;48.064;-0.792;2022-11-20T15:38:38;18.60;53.20
50955;DHT22;36966;48.064;-0.792;2022-11-20T15:40:57;18.50;53.30
50955;DHT22;36966;48.064;-0.792;2022-11-20T15:43:17;18.50;53.40
50955;DHT22;36966;48.064;-0.792;2022-11-20T15:45:49;18.50;53.40
50955;DHT22;36966;48.064;-0.792;2022-11-20T15:48:12;18.50;53.30
50955;DHT22;36966;48.064;-0.792;2022-11-20T15:50:39;18.50;53.20
50955;DHT22;36966;48.064;-0.792;2022-11-20T15:52:59;18.50;53.20
50955;DHT22;36966;48.064;-0.792;2022-11-20T15:55:18;18.50;53.10
50955;DHT22;36966;48.064;-0.792;2022-11-20T15:57:38;18.50;53.10
50955;DHT22;36966;48.064;-0.792;2022-11-20T15:59:57;18.50;53.00
50955;DHT22;36966;48.064;-0.792;2022-11-20T16:02:16;18.50;53.00
50955;DHT22;36966;48.064;-0.792;2022-11-20T16:04:36;18.50;53.00
50955;DHT22;36966;48.064;-0.792;2022-11-20T16:06:55;18.50;52.90
50955;DHT22;36966;48.064;-0.792;2022-11-20T16:09:14;18.50;52.90
50955;DHT22;36966;48.064;-0.792;2022-11-20T16:11:34;18.50;52.80
50955;DHT22;36966;48.064;-0.792;2022-11-20T16:13:56;18.50;52.80
50955;DHT22;36966;48.064;-0.792;2022-11-20T16:16:36;18.50;52.80
50955;DHT22;36966;48.064;-0.792;2022-11-20T16:18:57;18.50;52.70
50955;DHT22;36966;48.064;-0.792;2022-11-20T16:21:16;18.50;52.70
50955;DHT22;36966;48.064;-0.792;2022-11-20T16:23:36;18.50;52.60
50955;DHT22;36966;48.064;-0.792;2022-11-20T16:25:55;18.50;52.60
50955;DHT22;36966;48.064;-0.792;2022-11-20T16:28:14;18.50;52.50